createdAt,value
2019-04-03T00:03:07.262Z,72.40
2019-04-03T00:07:11.045Z,72.57
2019-04-03T00:11:14.822Z,72.54
2019-04-03T00:15:18.430Z,72.00
2019-04-03T00:19:21.960Z,71.68
2019-04-03T00:23:25.495Z,71.08
2019-04-03T00:27:29.180Z,70.73
2019-04-03T00:31:32.902Z,72.48
2019-04-03T00:35:36.617Z,72.42
2019-04-03T00:39:40.230Z,71.97
2019-04-03T00:43:44.048Z,71.91
2019-04-03T00:47:47.740Z,71.91
2019-04-03T00:51:51.528Z,71.17
2019-04-03T00:55:56.411Z,70.92
2019-04-03T01:00:00.665Z,70.68
2019-04-03T01:04:04.497Z,70.44
2019-04-03T01:08:08.464Z,69.61
2019-04-03T01:12:12.109Z,69.00
2019-04-03T01:16:15.712Z,68.86
2019-04-03T01:20:19.335Z,68.59
2019-04-03T01:24:22.951Z,68.35
2019-04-03T01:28:26.668Z,68.40
2019-04-03T01:32:30.286Z,68.30
2019-04-03T01:36:33.894Z,67.99
2019-04-03T01:40:37.507Z,67.14
2019-04-03T01:44:44.295Z,66.74
2019-04-03T01:48:48.044Z,67.21
2019-04-03T01:52:51.737Z,67.23
2019-04-03T01:56:55.353Z,67.34
2019-04-03T02:00:58.998Z,68.71
2019-04-03T02:05:02.623Z,70.18
2019-04-03T02:09:09.266Z,70.88
2019-04-03T02:13:12.794Z,70.59
2019-04-03T02:17:16.392Z,70.51
2019-04-03T02:21:20.003Z,70.66
2019-04-03T02:25:24.745Z,70.59
2019-04-03T02:29:28.457Z,70.97
2019-04-03T02:33:32.175Z,70.52
2019-04-03T02:37:36.129Z,70.02
2019-04-03T02:41:39.822Z,69.98
2019-04-03T02:45:43.904Z,71.01
2019-04-03T02:49:47.866Z,70.19
2019-04-03T02:53:51.679Z,70.22
2019-04-03T02:57:55.326Z,70.70
2019-04-03T03:01:58.913Z,70.59
2019-04-03T03:06:02.881Z,70.47
2019-04-03T03:10:08.314Z,70.61
2019-04-03T03:14:13.126Z,71.05
2019-04-03T03:18:17.049Z,70.17
2019-04-03T03:22:21.286Z,70.43
2019-04-03T03:26:25.501Z,71.82
2019-04-03T03:30:42.129Z,72.40
2019-04-03T03:34:55.056Z,72.40
2019-04-03T03:38:45.319Z,72.37
2019-04-03T03:42:50.611Z,72.74
2019-04-03T03:46:59.343Z,72.76
2019-04-03T03:51:03.576Z,71.35
2019-04-03T03:55:09.243Z,71.94
2019-04-03T03:59:16.376Z,72.71
2019-04-03T04:03:18.612Z,72.96
2019-04-03T04:07:22.604Z,73.22
2019-04-03T04:11:30.834Z,73.21
2019-04-03T04:15:36.597Z,72.91
2019-04-03T04:19:40.549Z,73.13
2019-04-03T04:23:44.673Z,73.13
2019-04-03T04:27:48.881Z,73.13
2019-04-03T04:31:52.534Z,73.17
2019-04-03T04:35:56.129Z,73.03
2019-04-03T04:40:00.263Z,73.18
2019-04-03T04:44:04.276Z,73.22
2019-04-03T04:48:07.906Z,73.20
2019-04-03T04:52:11.502Z,73.12
2019-04-03T04:56:15.245Z,72.99
2019-04-03T05:00:19.083Z,72.97
2019-04-03T05:04:23.292Z,72.46
2019-04-03T05:08:28.072Z,72.54
2019-04-03T05:12:31.882Z,72.72
2019-04-03T05:16:35.655Z,73.05
2019-04-03T05:20:39.632Z,72.84
2019-04-03T05:24:43.292Z,72.98
2019-04-03T05:28:55.751Z,72.70
2019-04-03T05:32:52.201Z,72.34
2019-04-03T05:36:56.012Z,72.30
2019-04-03T05:40:59.692Z,72.80
2019-04-03T05:45:04.551Z,72.45
2019-04-03T05:49:10.811Z,72.04
2019-04-03T05:53:13.911Z,71.78
2019-04-03T05:57:17.731Z,71.64
2019-04-03T06:01:21.393Z,71.39
2019-04-03T06:05:24.962Z,71.31
2019-04-03T06:09:28.830Z,70.88
2019-04-03T06:13:32.491Z,70.76
2019-04-03T06:17:36.863Z,70.78
2019-04-03T06:21:45.653Z,70.84
2019-04-03T06:25:49.134Z,69.88
2019-04-03T06:29:55.029Z,69.23
2019-04-03T06:33:59.372Z,69.27
2019-04-03T06:38:03.082Z,69.62
2019-04-03T06:42:06.801Z,69.30
2019-04-03T06:46:10.457Z,69.32
2019-04-03T06:50:16.901Z,68.02
2019-04-03T06:54:19.823Z,68.02
2019-04-03T06:58:26.512Z,69.31
2019-04-03T07:02:31.393Z,68.15
2019-04-03T07:06:34.354Z,69.00
2019-04-03T07:10:40.274Z,67.82
2019-04-03T07:14:43.420Z,65.91
2019-04-03T07:18:47.013Z,65.57
2019-04-03T07:22:50.825Z,66.41
2019-04-03T07:26:54.575Z,66.68
2019-04-03T07:30:58.446Z,66.62
2019-04-03T07:35:05.196Z,66.51
2019-04-03T07:39:10.613Z,66.32
2019-04-03T07:43:15.041Z,65.25
2019-04-03T07:47:18.652Z,65.46
2019-04-03T07:51:22.268Z,66.24
2019-04-03T07:55:27.999Z,66.24
2019-04-03T07:59:33.415Z,66.59
2019-04-03T08:03:36.485Z,66.68
2019-04-03T08:07:40.464Z,67.75
2019-04-03T08:11:43.993Z,68.43
2019-04-03T08:15:47.745Z,68.87
2019-04-03T08:19:53.593Z,70.09
2019-04-03T08:23:57.085Z,71.32
2019-04-03T08:28:00.730Z,71.86
2019-04-03T08:32:04.855Z,72.00
2019-04-03T08:36:08.994Z,72.41
2019-04-03T08:40:15.564Z,72.70
2019-04-03T08:44:19.175Z,72.26
2019-04-03T08:48:22.790Z,71.78
2019-04-03T08:52:26.513Z,72.22
2019-04-03T08:56:30.224Z,71.86
2019-04-03T09:00:33.912Z,71.76
2019-04-03T09:04:37.767Z,71.70
2019-04-03T09:08:41.373Z,72.21
2019-04-03T09:12:44.915Z,72.16
2019-04-03T09:16:48.500Z,72.85
2019-04-03T09:20:52.369Z,72.42
2019-04-03T09:24:56.034Z,72.05
2019-04-03T09:28:59.749Z,72.56
2019-04-03T09:33:03.362Z,72.36
2019-04-03T09:37:09.841Z,72.48
2019-04-03T09:41:13.557Z,72.60
2019-04-03T09:45:18.747Z,73.02
2019-04-03T09:49:22.432Z,73.46
2019-04-03T09:53:26.738Z,73.31
2019-04-03T09:57:31.328Z,73.43
2019-04-03T10:01:35.417Z,73.03
2019-04-03T10:05:39.033Z,73.03
2019-04-03T10:09:45.021Z,73.28
2019-04-03T10:13:48.868Z,73.48
2019-04-03T10:17:52.550Z,73.02
2019-04-03T10:21:56.166Z,73.58
2019-04-03T10:26:00.064Z,74.58
2019-04-03T10:30:08.614Z,74.56
2019-04-03T10:34:13.728Z,74.28
2019-04-03T10:38:18.312Z,74.20
2019-04-03T10:42:22.735Z,74.67
2019-04-03T10:46:26.757Z,73.95
2019-04-03T10:50:30.472Z,73.52
2019-04-03T10:54:34.095Z,74.25
2019-04-03T10:58:38.425Z,74.17
2019-04-03T11:02:43.200Z,74.11
2019-04-03T11:06:47.279Z,73.81
2019-04-03T11:10:50.999Z,74.00
2019-04-03T11:14:54.764Z,73.68
2019-04-03T11:19:02.721Z,74.68
2019-04-03T11:23:06.296Z,75.08
2019-04-03T11:27:09.141Z,74.20
2019-04-03T11:31:24.965Z,74.46
2019-04-03T11:35:20.574Z,74.94
2019-04-03T11:39:23.573Z,74.56
2019-04-03T11:43:27.818Z,74.94
2019-04-03T11:47:32.579Z,74.90
2019-04-03T11:51:36.243Z,74.79
2019-04-03T11:55:41.815Z,73.00
2019-04-03T11:59:47.005Z,72.63
2019-04-03T12:03:51.612Z,70.78
2019-04-03T12:07:56.557Z,72.18
2019-04-03T12:12:01.291Z,72.72
2019-04-03T12:16:06.143Z,73.50
2019-04-03T12:20:10.911Z,72.03
2019-04-03T12:24:15.028Z,71.96
2019-04-03T12:28:19.026Z,72.17
2019-04-03T12:32:23.022Z,70.40
2019-04-03T12:36:28.262Z,69.14
2019-04-03T12:40:32.844Z,68.70
2019-04-03T12:44:36.642Z,67.91
2019-04-03T12:48:40.386Z,65.67
2019-04-03T12:52:45.033Z,65.67
2019-04-03T12:56:49.343Z,65.90
2019-04-03T13:00:53.410Z,66.15
2019-04-03T13:04:57.075Z,65.44
2019-04-03T13:09:00.691Z,63.77
2019-04-03T13:13:04.735Z,64.84
2019-04-03T13:17:08.489Z,66.45
2019-04-03T13:21:12.353Z,65.49
2019-04-03T13:25:20.351Z,65.12
2019-04-03T13:29:22.955Z,65.15
2019-04-03T13:33:26.686Z,65.43
2019-04-03T13:37:30.285Z,65.04
2019-04-03T13:41:34.858Z,67.10
2019-04-03T13:45:39.021Z,65.78
2019-04-03T13:49:43.331Z,65.07
2019-04-03T13:53:46.893Z,64.96
2019-04-03T13:57:51.393Z,64.13
2019-04-03T14:01:55.324Z,65.33
2019-04-03T14:05:59.070Z,64.46
2019-04-03T14:10:03.265Z,66.09
2019-04-03T14:14:07.014Z,65.17
2019-04-03T14:18:10.877Z,65.57
2019-04-03T14:22:14.689Z,64.17
2019-04-03T14:26:18.486Z,64.93
2019-04-03T14:30:22.085Z,64.03
2019-04-03T14:34:29.262Z,64.37
2019-04-03T14:38:33.068Z,65.67
2019-04-03T14:42:38.461Z,64.44
2019-04-03T14:46:43.506Z,66.88
2019-04-03T14:50:47.806Z,66.88
2019-04-03T14:54:52.003Z,66.86
2019-04-03T14:58:58.929Z,66.74
2019-04-03T15:03:04.752Z,64.92
2019-04-03T15:07:09.926Z,63.42
2019-04-03T15:11:13.896Z,62.14
2019-04-03T15:15:20.365Z,61.30
2019-04-03T15:19:23.998Z,61.42
2019-04-03T15:23:28.877Z,61.59
2019-04-03T15:27:32.576Z,59.21
2019-04-03T15:31:36.900Z,60.55
2019-04-03T15:35:41.381Z,60.89
2019-04-03T15:39:47.803Z,61.02
2019-04-03T15:43:52.027Z,60.69
2019-04-03T15:47:57.669Z,59.56
2019-04-03T15:52:01.597Z,58.41
2019-04-03T15:56:05.901Z,58.41
2019-04-03T16:00:13.153Z,61.29
2019-04-03T16:04:18.306Z,61.70
2019-04-03T16:08:22.199Z,61.63
2019-04-03T16:12:26.039Z,62.15
2019-04-03T16:16:29.882Z,62.13
2019-04-03T16:20:36.591Z,62.47
2019-04-03T16:24:41.680Z,62.62
2019-04-03T16:28:45.715Z,63.19
2019-04-03T16:32:49.660Z,63.51
2019-04-03T16:36:53.353Z,63.27
2019-04-03T16:40:57.615Z,64.29
2019-04-03T16:45:04.485Z,64.67
2019-04-03T16:49:08.920Z,65.02
2019-04-03T16:53:12.858Z,64.69
2019-04-03T16:57:16.550Z,65.57
2019-04-03T17:01:21.030Z,65.21
2019-04-03T17:05:25.567Z,64.73
2019-04-03T17:09:31.755Z,65.05
2019-04-03T17:13:34.988Z,66.09
2019-04-03T17:17:39.155Z,66.44
2019-04-03T17:21:43.786Z,66.23
2019-04-03T17:25:50.590Z,66.34
2019-04-03T17:29:53.671Z,67.32
2019-04-03T17:33:57.779Z,69.06
2019-04-03T17:38:01.723Z,70.90
2019-04-03T17:42:06.784Z,72.00
2019-04-03T17:46:11.477Z,72.00
2019-04-03T17:50:15.544Z,72.91
2019-04-03T17:54:19.323Z,73.23
2019-04-03T17:58:24.063Z,73.72
2019-04-03T18:02:29.608Z,73.85
2019-04-03T18:06:33.773Z,73.84
2019-04-03T18:10:37.770Z,74.09
2019-04-03T18:14:41.911Z,73.47
2019-04-03T18:18:45.818Z,73.40
2019-04-03T18:22:51.004Z,74.73
2019-04-03T18:26:55.414Z,74.90
2019-04-03T18:30:59.317Z,74.66
2019-04-03T18:35:03.241Z,74.66
2019-04-03T18:39:09.721Z,74.12
2019-04-03T18:43:14.050Z,74.50
2019-04-03T18:47:19.101Z,74.79
2019-04-03T18:51:22.939Z,74.83
2019-04-03T18:55:27.790Z,74.98
2019-04-03T18:59:31.580Z,75.13
2019-04-03T19:03:36.391Z,75.15
2019-04-03T19:07:40.752Z,74.47
2019-04-03T19:11:44.336Z,74.92
2019-04-03T19:15:48.298Z,74.82
2019-04-03T19:20:09.448Z,74.58
2019-04-03T19:24:01.059Z,74.49
2019-04-03T19:28:04.927Z,74.62
2019-04-03T19:32:11.832Z,72.59
2019-04-03T19:36:14.036Z,73.63
2019-04-03T19:40:17.653Z,74.53
2019-04-03T19:44:21.701Z,75.38
2019-04-03T19:48:25.647Z,76.46
2019-04-03T19:52:30.379Z,76.80
2019-04-03T19:56:34.706Z,76.53
2019-04-03T20:00:38.857Z,75.71
2019-04-03T20:04:42.818Z,75.61
2019-04-03T20:08:47.401Z,75.91
2019-04-03T20:12:52.649Z,75.96
2019-04-03T20:17:02.805Z,76.09
2019-04-03T20:21:06.817Z,75.82
2019-04-03T20:25:14.485Z,75.79
2019-04-03T20:29:16.408Z,75.79
2019-04-03T20:33:20.001Z,76.03
2019-04-03T20:37:26.015Z,75.93
2019-04-03T20:41:29.069Z,75.88
2019-04-03T20:45:33.716Z,75.74
2019-04-03T20:49:37.444Z,75.70
2019-04-03T20:53:41.047Z,76.74
2019-04-03T20:57:54.910Z,76.32
2019-04-03T21:01:50.106Z,76.23
2019-04-03T21:05:53.743Z,76.54
2019-04-03T21:10:00.625Z,76.40
2019-04-03T21:14:05.450Z,75.83
2019-04-03T21:18:08.148Z,75.86
2019-04-03T21:22:11.706Z,75.80
2019-04-03T21:26:15.373Z,75.60
2019-04-03T21:30:19.090Z,75.78
2019-04-03T21:34:23.644Z,75.92
2019-04-03T21:38:27.243Z,75.89
2019-04-03T21:42:30.805Z,75.48
2019-04-03T21:46:34.572Z,75.83
2019-04-03T21:50:38.288Z,75.73
2019-04-03T21:54:41.910Z,75.68
2019-04-03T21:58:45.515Z,74.92
2019-04-03T22:02:52.517Z,74.67
2019-04-03T22:06:57.876Z,74.24
2019-04-03T22:11:04.616Z,73.78
2019-04-03T22:15:09.129Z,73.50
2019-04-03T22:19:13.122Z,73.76
2019-04-03T22:23:16.926Z,73.77
2019-04-03T22:27:20.536Z,73.78
2019-04-03T22:31:30.396Z,73.81
2019-04-03T22:35:34.113Z,73.94
2019-04-03T22:39:39.040Z,73.94
2019-04-03T22:43:44.162Z,74.13
2019-04-03T22:47:48.638Z,74.33
2019-04-03T22:51:52.356Z,74.45
2019-04-03T22:55:55.970Z,74.61
2019-04-03T22:59:59.835Z,74.32
2019-04-03T23:04:05.325Z,73.67
2019-04-03T23:08:09.171Z,72.40
2019-04-03T23:12:12.783Z,71.75
2019-04-03T23:16:16.498Z,72.12
2019-04-03T23:20:22.178Z,72.37
2019-04-03T23:24:28.545Z,72.40
2019-04-03T23:28:33.728Z,72.18
2019-04-03T23:32:36.588Z,72.42
2019-04-03T23:36:40.204Z,73.17
2019-04-03T23:40:43.832Z,72.83
2019-04-03T23:44:47.530Z,72.96
2019-04-03T23:48:51.975Z,72.79
2019-04-03T23:52:55.782Z,73.78
2019-04-03T23:56:59.561Z,73.78
